Time,TemperatureF,DewpointF,PressureIn,WindDirection,WindDirectionDegrees,WindSpeedMPH,WindSpeedGustMPH,Humidity,HourlyPrecipIn,Conditions,Clouds,dailyrainin,SoftwareType,DateUTC
2013-05-16 00:07:00,63.9,59.3,29.97,South,180,0.0,-999.0,85,-99.99,,,0.00,Acu-Link.com,2013-05-16 04:07:00,
2013-05-16 00:22:00,63.7,59.8,29.97,WSW,247,0.0,-999.0,87,-99.99,,,0.00,Acu-Link.com,2013-05-16 04:22:00,
2013-05-16 00:37:00,63.0,58.4,29.96,WNW,292,0.0,-999.0,85,-99.99,,,0.00,Acu-Link.com,2013-05-16 04:37:00,
2013-05-16 00:53:00,63.0,59.1,29.95,WNW,292,0.0,-999.0,87,-99.99,,,0.00,Acu-Link.com,2013-05-16 04:53:00,
2013-05-16 01:08:00,62.6,58.7,29.95,WNW,292,0.0,-999.0,87,-99.99,,,0.00,Acu-Link.com,2013-05-16 05:08:00,
2013-05-16 01:23:00,62.2,58.3,29.95,WNW,292,0.0,-999.0,87,-99.99,,,0.00,Acu-Link.com,2013-05-16 05:23:00,
2013-05-16 01:38:00,61.7,57.8,29.95,SE,135,0.0,-999.0,87,-99.99,,,0.00,Acu-Link.com,2013-05-16 05:38:00,
2013-05-16 01:54:00,61.3,57.7,29.94,SE,135,0.0,-999.0,88,-99.99,,,0.00,Acu-Link.com,2013-05-16 05:54:00,
2013-05-16 02:09:00,61.2,57.3,29.94,SE,135,0.0,-999.0,87,-99.99,,,0.00,Acu-Link.com,2013-05-16 06:09:00,
2013-05-16 02:24:00,61.0,57.4,29.93,SE,135,0.0,-999.0,88,-99.99,,,0.00,Acu-Link.com,2013-05-16 06:24:00,
2013-05-16 02:40:00,61.3,58.3,29.92,West,270,0.0,-999.0,90,-99.99,,,0.00,Acu-Link.com,2013-05-16 06:40:00,
2013-05-16 02:55:00,61.5,58.5,29.92,West,270,0.0,-999.0,90,-99.99,,,0.00,Acu-Link.com,2013-05-16 06:55:00,
2013-05-16 03:10:00,61.2,58.2,29.92,South,180,0.0,-999.0,90,-99.99,,,0.00,Acu-Link.com,2013-05-16 07:10:00,
2013-05-16 03:25:00,60.4,57.1,29.92,South,180,0.0,-999.0,89,-99.99,,,0.00,Acu-Link.com,2013-05-16 07:25:00,
2013-05-16 03:41:00,60.1,56.8,29.92,NW,315,0.0,-999.0,89,-99.99,,,0.00,Acu-Link.com,2013-05-16 07:41:00,
2013-05-16 03:56:00,59.7,56.5,29.91,NW,315,0.0,-999.0,89,-99.99,,,0.00,Acu-Link.com,2013-05-16 07:56:00,
2013-05-16 04:11:00,60.1,57.2,29.92,NW,315,0.0,-999.0,90,-99.99,,,0.00,Acu-Link.com,2013-05-16 08:11:00,
2013-05-16 04:26:00,59.4,56.2,29.91,NW,315,0.0,-999.0,89,-99.99,,,0.00,Acu-Link.com,2013-05-16 08:26:00,
2013-05-16 04:41:00,59.5,56.9,29.92,NW,315,0.0,-999.0,91,-99.99,,,0.00,Acu-Link.com,2013-05-16 08:41:00,
2013-05-16 04:56:00,59.0,56.1,29.91,NW,315,0.0,-999.0,90,-99.99,,,0.00,Acu-Link.com,2013-05-16 08:56:00,
2013-05-16 05:12:00,58.6,55.7,29.92,NW,315,0.0,-999.0,90,-99.99,,,0.00,Acu-Link.com,2013-05-16 09:12:00,
2013-05-16 05:27:00,58.5,55.6,29.91,NW,315,0.0,-999.0,90,-99.99,,,0.00,Acu-Link.com,2013-05-16 09:27:00,
2013-05-16 05:42:00,59.0,56.7,29.92,NW,315,0.0,-999.0,92,-99.99,,,0.00,Acu-Link.com,2013-05-16 09:42:00,
2013-05-16 05:57:00,57.7,54.8,29.92,NW,315,0.0,-999.0,90,-99.99,,,0.00,Acu-Link.com,2013-05-16 09:57:00,
2013-05-16 06:13:00,58.3,56.0,29.93,NW,315,0.0,-999.0,92,-99.99,,,0.00,Acu-Link.com,2013-05-16 10:13:00,
2013-05-16 06:28:00,58.1,55.8,29.93,NW,315,0.0,-999.0,92,-99.99,,,0.00,Acu-Link.com,2013-05-16 10:28:00,
2013-05-16 06:43:00,57.6,54.7,29.94,NW,315,0.0,-999.0,90,-99.99,,,0.00,Acu-Link.com,2013-05-16 10:43:00,
2013-05-16 06:58:00,57.9,55.0,29.94,NW,315,0.0,-999.0,90,-99.99,,,0.00,Acu-Link.com,2013-05-16 10:58:00,
2013-05-16 07:14:00,59.9,57.6,29.94,NW,315,0.0,-999.0,92,-99.99,,,0.00,Acu-Link.com,2013-05-16 11:14:00,
2013-05-16 07:29:00,63.5,60.8,29.94,NW,315,0.0,-999.0,91,-99.99,,,0.00,Acu-Link.com,2013-05-16 11:29:00,
2013-05-16 07:44:00,67.6,63.3,29.94,ESE,112,0.0,-999.0,86,-99.99,,,0.00,Acu-Link.com,2013-05-16 11:44:00,
2013-05-16 08:00:00,72.3,62.8,29.95,ESE,112,0.0,-999.0,72,-99.99,,,0.00,Acu-Link.com,2013-05-16 12:00:00,
2013-05-16 08:15:00,75.2,63.0,29.95,ESE,112,0.0,-999.0,66,-99.99,,,0.00,Acu-Link.com,2013-05-16 12:15:00,
2013-05-16 08:30:00,77.0,63.0,29.95,East,90,1.7,-999.0,62,-99.99,,,0.00,Acu-Link.com,2013-05-16 12:30:00,
2013-05-16 08:46:00,79.3,62.2,29.96,SSE,157,0.0,-999.0,56,-99.99,,,0.00,Acu-Link.com,2013-05-16 12:46:00,
2013-05-16 09:01:00,79.0,61.9,29.96,SSE,157,3.7,-999.0,56,-99.99,,,0.00,Acu-Link.com,2013-05-16 13:01:00,
2013-05-16 09:16:00,80.8,61.5,29.96,SSE,157,2.7,-999.0,52,-99.99,,,0.00,Acu-Link.com,2013-05-16 13:16:00,
2013-05-16 09:31:00,84.4,63.1,29.97,SE,135,2.7,-999.0,49,-99.99,,,0.00,Acu-Link.com,2013-05-16 13:31:00,
2013-05-16 09:47:00,79.7,61.0,29.97,ESE,112,2.7,-999.0,53,-99.99,,,0.00,Acu-Link.com,2013-05-16 13:47:00,
2013-05-16 10:02:00,81.0,61.1,29.97,NW,315,1.7,-999.0,51,-99.99,,,0.00,Acu-Link.com,2013-05-16 14:02:00,
2013-05-16 10:17:00,82.2,60.5,29.98,SSE,157,0.0,-999.0,48,-99.99,,,0.00,Acu-Link.com,2013-05-16 14:17:00,
2013-05-16 10:33:00,83.3,62.1,29.98,NNW,337,2.2,-999.0,49,-99.99,,,0.00,Acu-Link.com,2013-05-16 14:33:00,
2013-05-16 10:48:00,82.6,62.0,29.98,East,90,0.0,-999.0,50,-99.99,,,0.00,Acu-Link.com,2013-05-16 14:48:00,
2013-05-16 11:03:00,84.4,62.5,29.98,SE,135,4.2,-999.0,48,-99.99,,,0.00,Acu-Link.com,2013-05-16 15:03:00,
2013-05-16 11:18:00,84.7,62.2,29.99,ESE,112,2.7,-999.0,47,-99.99,,,0.00,Acu-Link.com,2013-05-16 15:18:00,
2013-05-16 11:34:00,86.9,63.6,29.98,ESE,112,7.3,-999.0,46,-99.99,,,0.00,Acu-Link.com,2013-05-16 15:34:00,
2013-05-16 11:49:00,83.5,62.3,29.98,NE,45,0.0,-999.0,49,-99.99,,,0.00,Acu-Link.com,2013-05-16 15:49:00,
2013-05-16 12:04:00,83.8,62.0,29.97,SE,135,3.2,-999.0,48,-99.99,,,0.00,Acu-Link.com,2013-05-16 16:04:00,
2013-05-16 12:19:00,84.4,61.9,29.98,ESE,112,3.7,-999.0,47,-99.99,,,0.00,Acu-Link.com,2013-05-16 16:19:00,
2013-05-16 12:34:00,85.5,63.5,29.98,SE,135,3.2,-999.0,48,-99.99,,,0.00,Acu-Link.com,2013-05-16 16:34:00,
2013-05-16 12:49:00,85.3,62.8,29.97,East,90,2.7,-999.0,47,-99.99,,,0.00,Acu-Link.com,2013-05-16 16:49:00,
2013-05-16 13:05:00,87.4,63.4,29.96,SE,135,2.2,-999.0,45,-99.99,,,0.00,Acu-Link.com,2013-05-16 17:05:00,
2013-05-16 13:20:00,86.0,63.4,29.96,ESE,112,7.8,-999.0,47,-99.99,,,0.00,Acu-Link.com,2013-05-16 17:20:00,
2013-05-16 13:35:00,87.3,64.0,29.95,SE,135,6.8,-999.0,46,-99.99,,,0.00,Acu-Link.com,2013-05-16 17:35:00,
2013-05-16 13:50:00,85.3,62.8,29.95,WSW,247,6.8,-999.0,47,-99.99,,,0.00,Acu-Link.com,2013-05-16 17:50:00,
2013-05-16 14:06:00,85.6,63.6,29.96,ESE,112,4.2,-999.0,48,-99.99,,,0.00,Acu-Link.com,2013-05-16 18:06:00,
2013-05-16 14:21:00,85.3,62.8,29.95,SE,135,3.7,-999.0,47,-99.99,,,0.00,Acu-Link.com,2013-05-16 18:21:00,
2013-05-16 14:36:00,84.7,63.4,29.95,ESE,112,4.7,-999.0,49,-99.99,,,0.00,Acu-Link.com,2013-05-16 18:36:00,
2013-05-16 14:51:00,83.5,62.9,29.93,ESE,112,4.2,-999.0,50,-99.99,,,0.00,Acu-Link.com,2013-05-16 18:51:00,
2013-05-16 15:07:00,83.8,63.1,29.93,ESE,112,4.7,-999.0,50,-99.99,,,0.00,Acu-Link.com,2013-05-16 19:07:00,
2013-05-16 15:22:00,84.7,63.4,29.93,East,90,2.7,-999.0,49,-99.99,,,0.00,Acu-Link.com,2013-05-16 19:22:00,
2013-05-16 15:37:00,84.9,62.4,29.93,ESE,112,4.7,-999.0,47,-99.99,,,0.00,Acu-Link.com,2013-05-16 19:37:00,
2013-05-16 15:52:00,85.3,62.1,29.92,ESE,112,4.7,-999.0,46,-99.99,,,0.00,Acu-Link.com,2013-05-16 19:52:00,
2013-05-16 16:08:00,82.2,59.9,29.92,SE,135,3.7,-999.0,47,-99.99,,,0.00,Acu-Link.com,2013-05-16 20:08:00,
2013-05-16 16:23:00,83.3,62.7,29.91,ESE,112,3.2,-999.0,50,-99.99,,,0.00,Acu-Link.com,2013-05-16 20:23:00,
2013-05-16 16:38:00,83.8,62.0,29.91,SSE,157,3.7,-999.0,48,-99.99,,,0.00,Acu-Link.com,2013-05-16 20:38:00,
2013-05-16 16:53:00,82.4,61.3,29.91,SSE,157,6.3,-999.0,49,-99.99,,,0.00,Acu-Link.com,2013-05-16 20:53:00,
2013-05-16 17:09:00,81.9,59.7,29.91,SE,135,4.2,-999.0,47,-99.99,,,0.00,Acu-Link.com,2013-05-16 21:09:00,
2013-05-16 17:24:00,82.6,62.0,29.90,SE,135,3.2,-999.0,50,-99.99,,,0.00,Acu-Link.com,2013-05-16 21:24:00,
2013-05-16 17:39:00,82.0,61.5,29.90,ESE,112,4.7,-999.0,50,-99.99,,,0.00,Acu-Link.com,2013-05-16 21:39:00,
2013-05-16 17:54:00,83.5,63.4,29.90,SSE,157,3.7,-999.0,51,-99.99,,,0.00,Acu-Link.com,2013-05-16 21:54:00,
2013-05-16 18:10:00,83.3,63.8,29.90,NNE,22,3.2,-999.0,52,-99.99,,,0.00,Acu-Link.com,2013-05-16 22:10:00,
2013-05-16 18:25:00,81.5,63.7,29.90,SE,135,3.2,-999.0,55,-99.99,,,0.00,Acu-Link.com,2013-05-16 22:25:00,
2013-05-16 18:40:00,79.0,62.4,29.90,ESE,112,3.2,-999.0,57,-99.99,,,0.00,Acu-Link.com,2013-05-16 22:40:00,
2013-05-16 18:55:00,78.1,62.6,29.89,WNW,292,5.3,-999.0,59,-99.99,,,0.00,Acu-Link.com,2013-05-16 22:55:00,
2013-05-16 19:10:00,76.5,62.0,29.89,SE,135,5.3,-999.0,61,-99.99,,,0.00,Acu-Link.com,2013-05-16 23:10:00,
2013-05-16 19:26:00,75.6,61.6,29.90,ESE,112,2.2,-999.0,62,-99.99,,,0.00,Acu-Link.com,2013-05-16 23:26:00,
2013-05-16 19:41:00,74.8,61.8,29.90,SSE,157,3.7,-999.0,64,-99.99,,,0.00,Acu-Link.com,2013-05-16 23:41:00,
2013-05-16 19:56:00,74.1,61.6,29.90,ESE,112,2.7,-999.0,65,-99.99,,,0.00,Acu-Link.com,2013-05-16 23:56:00,
2013-05-16 20:11:00,73.8,61.7,29.90,WNW,292,2.7,-999.0,66,-99.99,,,0.00,Acu-Link.com,2013-05-17 00:11:00,
2013-05-16 20:27:00,73.2,61.6,29.88,SE,135,1.7,-999.0,67,-99.99,,,0.00,Acu-Link.com,2013-05-17 00:27:00,
2013-05-16 20:42:00,72.7,61.1,29.89,SE,135,1.7,-999.0,67,-99.99,,,0.00,Acu-Link.com,2013-05-17 00:42:00,
2013-05-16 20:57:00,72.5,61.3,29.90,East,90,1.1,-999.0,68,-99.99,,,0.00,Acu-Link.com,2013-05-17 00:57:00,
2013-05-16 21:13:00,72.0,60.8,29.90,ESE,112,2.2,-999.0,68,-99.99,,,0.00,Acu-Link.com,2013-05-17 01:13:00,
2013-05-16 21:28:00,71.6,60.5,29.91,ESE,112,1.1,-999.0,68,-99.99,,,0.00,Acu-Link.com,2013-05-17 01:28:00,
2013-05-16 21:43:00,71.2,60.5,29.91,SSE,157,2.2,-999.0,69,-99.99,,,0.00,Acu-Link.com,2013-05-17 01:43:00,
2013-05-16 21:58:00,71.1,60.4,29.91,ENE,67,0.0,-999.0,69,-99.99,,,0.00,Acu-Link.com,2013-05-17 01:58:00,
2013-05-16 22:14:00,70.5,60.2,29.92,West,270,0.0,-999.0,70,-99.99,,,0.00,Acu-Link.com,2013-05-17 02:14:00,
2013-05-16 22:29:00,69.6,60.2,29.93,SSE,157,0.0,-999.0,72,-99.99,,,0.00,Acu-Link.com,2013-05-17 02:29:00,
2013-05-16 22:44:00,68.7,60.1,29.92,ESE,112,0.0,-999.0,74,-99.99,,,0.00,Acu-Link.com,2013-05-17 02:44:00,
2013-05-16 22:59:00,67.8,59.2,29.92,SE,135,0.0,-999.0,74,-99.99,,,0.00,Acu-Link.com,2013-05-17 02:59:00,
2013-05-16 23:15:00,67.3,59.5,29.92,SE,135,0.0,-999.0,76,-99.99,,,0.00,Acu-Link.com,2013-05-17 03:15:00,
2013-05-16 23:30:00,66.6,59.9,29.92,SE,135,0.0,-999.0,79,-99.99,,,0.00,Acu-Link.com,2013-05-17 03:30:00,
2013-05-16 23:45:00,67.1,60.0,29.92,WSW,247,0.0,-999.0,78,-99.99,,,0.00,Acu-Link.com,2013-05-17 03:45:00,